Terminal Aerodrome Forecast
Issued by NWS Wilmington, OH

Current Version | Previous Version | Graphics & Text | Print | Product List | Glossary On
Versions: 1 2 3 4 5 6 7 8 9 10 11 12 13 14 15 16 17 18 19 20 21 22 23 24 25
000
FTUS41 KILN 021733
TAFCVG
TAF
KCVG 021733Z 0218/0324 20009KT P6SM FEW250
     FM030000 21005KT P6SM SCT200
     FM031400 25010KT P6SM VCTS BKN040CB
     FM032000 29013KT P6SM SCT050=

USA.gov is the U.S. government's official web portal to all federal, state and local government web resources and services.